Hovedside
METAR-TAF:

METAR-TAF

Lufthavner :

Kolding, Danmark

Vamdrup

breddegrad: 55-26N, lengdegrad: 009-20E, høyde over havet: 44 m

Gjeldene værobservasjon

Denne rapporten ble laget for 35 minutter siden, klokken 18:20 UTC
Vind 2 kt fra Øst
Temperatur 12°C
Luftfuktighet 94%
Trykk 1022 hPa

METAR: EKVD 221820Z AUTO 08002KT //// ///////// 12/11 Q1022

Tid: 20:55 (18:55 UTC)

Varsel

Denne rapporten ble laget for 6 timer og 59 minutter siden, klokken 11:56 UTC
Varsel gyldig fra 22. klokken 12 UTC til 22. klokken 16 UTC
Vind 5 kt fra Øst-sørøst
Sikt 10 km eller mer
Brutte skyer i en høyde av 1800 ft

TAF: EKVD 221156Z 2212/2216 12005KT 9999 BKN018

Værobservasjoner og værvarsel for over 4000 flyplasser (METAR- og TAF-rapporter).

Tilgjengelige stasjoner er representert av de røde og gule prikkene på kartet.

Hold musepekeren over prikken for å se navnet på stasjonen.

Klikk så for å se værobservasjoner og -varsler.

For å forandre kartet kan du klikke på den grønne knappen med svart kryss for å zoome inn, på den grønne knappen med strek for å zoome ut, eller på de grønne pilene for å se tilstøtende kart.


METAR-TAF: